Time;durP1;ratioP1;P1;durP2;ratioP2;P2;SDS_P1;SDS_P2;PMS_P1;PMS_P2;Temp;Humidity;BMP_temperature;BMP_pressure;BME280_temperature;BME280_humidity;BME280_pressure;Samples;Min_cycle;Max_cycle;Signal;HPM_P1;HPM_P2
2023/10/30 00:02:24;;;;;;;7.15;2.13;;;;;;;13.04;80.09;95722.31;4825346;29;20061;-78
2023/10/30 00:04:52;;;;;;;5.60;2.60;;;;;;;13.05;80.11;95723.91;4825583;29;20145;-78
2023/10/30 00:07:19;;;;;;;5.32;1.98;;;;;;;13.04;80.60;95721.53;4825104;29;20456;-78
2023/10/30 00:09:47;;;;;;;2.30;1.60;;;;;;;13.03;81.58;95731.19;4825260;29;20050;-79
2023/10/30 00:12:15;;;;;;;3.45;2.03;;;;;;;13.05;82.18;95717.88;4824243;29;20090;-78
2023/10/30 00:14:44;;;;;;;3.10;1.40;;;;;;;13.05;82.09;95725.72;4825485;29;20050;-78
2023/10/30 00:17:11;;;;;;;5.47;2.03;;;;;;;13.05;82.18;95718.66;4825097;29;20143;-78
2023/10/30 00:19:39;;;;;;;3.63;2.35;;;;;;;13.03;80.98;95725.97;4828735;29;20137;-79
2023/10/30 00:22:10;;;;;;;2.40;1.75;;;;;;;13.01;80.91;95725.38;4833985;29;20050;-78
2023/10/30 00:24:38;;;;;;;2.25;2.05;;;;;;;13.00;81.78;95729.00;4825694;29;20133;-78
2023/10/30 00:27:06;;;;;;;3.50;2.05;;;;;;;12.99;81.83;95740.50;4825315;29;20145;-79
2023/10/30 00:29:38;;;;;;;3.95;2.33;;;;;;;12.98;82.67;95741.50;4825197;29;20127;-79
2023/10/30 00:32:08;;;;;;;2.30;2.10;;;;;;;12.99;82.79;95746.53;4825193;29;20142;-78
2023/10/30 00:34:35;;;;;;;2.08;1.58;;;;;;;13.01;81.55;95748.13;4824792;29;20172;-78
2023/10/30 00:37:04;;;;;;;2.03;1.60;;;;;;;13.01;81.91;95758.59;4824635;29;20058;-78
2023/10/30 00:39:32;;;;;;;2.40;2.20;;;;;;;13.03;82.99;95752.16;4824589;29;20089;-78
2023/10/30 00:42:00;;;;;;;3.30;2.47;;;;;;;13.02;81.78;95750.53;4825003;29;20480;-78
2023/10/30 00:44:28;;;;;;;2.88;2.47;;;;;;;13.02;81.79;95749.72;4824439;29;20515;-78
2023/10/30 00:46:56;;;;;;;3.50;2.50;;;;;;;12.99;80.83;95750.97;4824523;29;20058;-78
2023/10/30 00:49:24;;;;;;;3.65;2.50;;;;;;;12.94;80.31;95762.09;4824540;29;20499;-78
2023/10/30 00:51:52;;;;;;;2.53;2.33;;;;;;;12.95;80.13;95760.28;4824618;29;20133;-78
2023/10/30 00:54:19;;;;;;;3.20;2.63;;;;;;;12.94;79.81;95769.13;4824845;29;20487;-78
2023/10/30 00:56:47;;;;;;;3.63;3.05;;;;;;;12.93;79.77;95772.78;4824631;29;20058;-78
2023/10/30 00:59:15;;;;;;;3.50;3.20;;;;;;;12.95;81.69;95768.13;4824665;29;20082;-78
2023/10/30 01:01:42;;;;;;;4.28;3.10;;;;;;;12.95;80.57;95761.06;4824837;29;20061;-78
2023/10/30 01:04:10;;;;;;;2.65;2.45;;;;;;;12.92;79.97;95763.31;4824419;29;20107;-79
2023/10/30 01:06:39;;;;;;;2.65;2.30;;;;;;;12.91;80.71;95770.38;4824060;29;20066;-78
2023/10/30 01:09:07;;;;;;;3.42;2.50;;;;;;;12.93;81.27;95764.91;4824467;29;20424;-78
2023/10/30 01:11:34;;;;;;;5.05;3.00;;;;;;;12.96;80.96;95777.56;4824509;29;20397;-78
2023/10/30 01:14:02;;;;;;;3.58;3.33;;;;;;;12.97;82.40;95774.75;4824113;29;20050;-78
2023/10/30 01:16:29;;;;;;;4.05;3.58;;;;;;;12.97;81.42;95774.75;4823991;29;20143;-78
2023/10/30 01:18:57;;;;;;;4.13;3.00;;;;;;;12.96;80.56;95778.34;4824041;29;20058;-78
2023/10/30 01:21:24;;;;;;;2.75;2.55;;;;;;;12.97;80.73;95776.56;4823972;29;20568;-78
2023/10/30 01:23:53;;;;;;;4.55;2.78;;;;;;;12.98;81.58;95786.81;4824205;29;20419;-78
2023/10/30 01:26:21;;;;;;;4.05;3.50;;;;;;;12.99;82.03;95792.84;4824080;29;20157;-78
2023/10/30 01:28:48;;;;;;;4.20;3.80;;;;;;;13.02;83.41;95791.63;4823961;29;20066;-78
2023/10/30 01:31:16;;;;;;;4.75;3.88;;;;;;;13.05;83.70;95791.97;4823751;29;20575;-78
2023/10/30 01:33:44;;;;;;;4.32;3.35;;;;;;;13.05;82.68;95799.81;4824082;29;20050;-78
2023/10/30 01:36:12;;;;;;;7.18;3.72;;;;;;;13.06;83.07;95809.28;4823998;29;20544;-78
2023/10/30 01:38:40;;;;;;;8.00;3.65;;;;;;;13.07;82.36;95805.66;4823920;29;20142;-78
2023/10/30 01:41:09;;;;;;;4.32;3.55;;;;;;;13.08;81.89;95812.50;4823749;29;20582;-78
2023/10/30 01:43:36;;;;;;;3.88;3.47;;;;;;;13.10;82.08;95815.69;4823799;29;20061;-78
2023/10/30 01:46:05;;;;;;;3.97;3.58;;;;;;;13.11;81.40;95801.56;4823460;29;20141;-78
2023/10/30 01:48:34;;;;;;;3.55;3.25;;;;;;;13.10;81.69;95792.13;4823882;29;20342;-78
2023/10/30 01:51:05;;;;;;;4.22;3.28;;;;;;;13.12;81.72;95805.03;4823853;29;20054;-78
2023/10/30 01:53:33;;;;;;;3.53;3.22;;;;;;;13.11;82.82;95806.03;4823867;29;20055;-78
2023/10/30 01:56:03;;;;;;;4.20;3.60;;;;;;;13.12;82.93;95805.81;4823455;29;20082;-78
2023/10/30 01:58:33;;;;;;;5.50;3.60;;;;;;;13.14;83.01;95795.94;4824070;29;20085;-78
2023/10/30 02:01:00;;;;;;;4.90;3.00;;;;;;;13.15;83.26;95789.66;4823718;29;20127;-78
2023/10/30 02:03:28;;;;;;;3.67;3.38;;;;;;;13.22;84.63;95794.03;4825276;29;20050;-78
2023/10/30 02:05:56;;;;;;;4.32;3.92;;;;;;;13.23;84.32;95799.06;4823132;29;20504;-78
2023/10/30 02:08:24;;;;;;;4.28;3.72;;;;;;;13.25;84.90;95796.19;4823596;29;20060;-78
2023/10/30 02:10:52;;;;;;;6.35;4.10;;;;;;;13.27;85.13;95788.94;4823560;29;20081;-78
2023/10/30 02:13:19;;;;;;;5.88;4.00;;;;;;;13.26;84.54;95787.34;4823323;29;20141;-78
2023/10/30 02:15:48;;;;;;;4.20;3.53;;;;;;;13.23;83.68;95782.53;4823444;29;20149;-79
2023/10/30 02:18:16;;;;;;;4.38;3.97;;;;;;;13.23;84.02;95787.75;4823580;29;20054;-79
2023/10/30 02:20:44;;;;;;;5.43;3.63;;;;;;;13.19;83.30;95782.97;4823202;29;20439;-78
2023/10/30 02:23:11;;;;;;;4.50;3.72;;;;;;;13.16;82.54;95780.81;4823689;29;20480;-78
2023/10/30 02:25:40;;;;;;;3.35;3.05;;;;;;;13.17;82.36;95794.69;4823065;29;20153;-78
2023/10/30 02:28:08;;;;;;;3.30;3.00;;;;;;;13.20;83.00;95783.75;4823206;29;20594;-78
2023/10/30 02:30:35;;;;;;;6.18;3.70;;;;;;;13.21;83.23;95780.16;4823323;29;20078;-78
2023/10/30 02:33:03;;;;;;;4.15;3.75;;;;;;;13.17;81.74;95776.34;4830427;29;20113;-79
2023/10/30 02:35:31;;;;;;;4.10;3.70;;;;;;;13.15;81.57;95783.63;4842360;29;20058;-79
2023/10/30 02:37:58;;;;;;;4.55;3.88;;;;;;;13.17;81.53;95778.97;4838334;29;20124;-79
2023/10/30 02:40:26;;;;;;;6.43;4.63;;;;;;;13.19;83.00;95775.13;4827342;29;20493;-79
2023/10/30 02:42:55;;;;;;;3.95;3.58;;;;;;;13.20;81.90;95771.47;4826954;29;20051;-79
2023/10/30 02:45:22;;;;;;;4.18;3.78;;;;;;;13.18;81.19;95770.09;4826837;29;20061;-79
2023/10/30 02:47:50;;;;;;;4.22;3.40;;;;;;;13.15;80.64;95771.31;4826705;29;20046;-79
2023/10/30 02:50:17;;;;;;;3.92;3.30;;;;;;;13.11;80.10;95783.25;4826667;29;20062;-79
2023/10/30 02:52:45;;;;;;;6.05;4.15;;;;;;;13.09;80.57;95793.13;4826354;29;20141;-79
2023/10/30 02:55:13;;;;;;;5.72;3.53;;;;;;;13.10;80.31;95781.66;4826540;29;20078;-79
2023/10/30 02:57:40;;;;;;;4.18;3.78;;;;;;;13.10;80.23;95773.00;4826526;29;20144;-79
2023/10/30 03:00:10;;;;;;;4.22;3.80;;;;;;;13.09;79.92;95772.19;4826387;29;20081;-78
2023/10/30 03:02:38;;;;;;;4.05;3.58;;;;;;;13.09;80.56;95772.19;4826302;29;20054;-79
2023/10/30 03:05:07;;;;;;;4.03;3.63;;;;;;;13.12;82.38;95761.31;4826360;29;20508;-79
2023/10/30 03:07:35;;;;;;;4.28;3.40;;;;;;;13.13;81.30;95752.41;4826448;29;20146;-78
2023/10/30 03:10:02;;;;;;;3.97;3.45;;;;;;;13.12;80.61;95752.66;4826255;29;20137;-79
2023/10/30 03:12:30;;;;;;;4.43;3.78;;;;;;;13.10;80.26;95747.63;4826359;29;20078;-79
2023/10/30 03:14:57;;;;;;;4.25;3.80;;;;;;;13.10;81.87;95742.38;4826127;29;20054;-79
2023/10/30 03:17:26;;;;;;;4.57;4.13;;;;;;;13.15;84.09;95739.91;4826300;29;20058;-79
2023/10/30 03:19:54;;;;;;;4.70;4.20;;;;;;;13.18;83.58;95746.53;4825794;29;20713;-78
2023/10/30 03:22:22;;;;;;;8.43;4.20;;;;;;;13.14;81.78;95746.19;4826280;29;20149;-79
2023/10/30 03:24:49;;;;;;;4.75;4.03;;;;;;;13.11;81.00;95749.22;4825984;29;20064;-79
2023/10/30 03:27:17;;;;;;;4.70;3.45;;;;;;;13.09;80.46;95746.00;4825844;29;20606;-79
2023/10/30 03:29:44;;;;;;;5.88;3.70;;;;;;;13.08;80.19;95749.66;4825974;29;20107;-79
2023/10/30 03:32:12;;;;;;;3.70;3.40;;;;;;;13.10;80.60;95752.84;4825830;29;20427;-79
2023/10/30 03:34:41;;;;;;;3.70;3.35;;;;;;;13.09;80.00;95755.69;4825783;29;20154;-79
2023/10/30 03:37:09;;;;;;;3.97;3.67;;;;;;;13.06;79.80;95746.47;4825672;29;20158;-79
2023/10/30 03:39:37;;;;;;;4.38;3.10;;;;;;;13.06;79.77;95749.06;4825805;29;20488;-79
2023/10/30 03:42:05;;;;;;;4.30;3.15;;;;;;;13.06;79.81;95738.59;4825612;29;20054;-79
2023/10/30 03:44:33;;;;;;;4.75;3.13;;;;;;;13.06;79.53;95740.44;4825699;29;20098;-79
2023/10/30 03:47:00;;;;;;;3.50;3.20;;;;;;;13.05;79.80;95744.84;4824210;29;20525;-79
2023/10/30 03:49:28;;;;;;;3.05;2.83;;;;;;;13.07;79.59;95748.03;4825691;29;20061;-79
2023/10/30 03:51:57;;;;;;;2.75;2.00;;;;;;;13.07;79.27;95748.03;4835827;29;20115;-79
2023/10/30 03:54:24;;;;;;;3.72;2.38;;;;;;;13.07;79.47;95753.28;4825613;29;20054;-79
2023/10/30 03:56:52;;;;;;;2.65;2.28;;;;;;;13.07;79.50;95755.09;4824676;29;20058;-79
2023/10/30 03:59:20;;;;;;;2.78;1.80;;;;;;;13.07;79.84;95742.00;4825210;29;20080;-78
2023/10/30 04:01:47;;;;;;;3.20;2.67;;;;;;;13.08;79.52;95733.16;4824184;29;20084;-78
2023/10/30 04:04:15;;;;;;;3.42;2.33;;;;;;;13.08;79.28;95738.41;4825095;29;20086;-78
2023/10/30 04:06:43;;;;;;;2.10;1.90;;;;;;;13.05;79.17;95738.81;4824810;29;20155;-78
2023/10/30 04:09:12;;;;;;;3.28;1.90;;;;;;;13.03;79.30;95733.00;4825356;29;20062;-78
2023/10/30 04:11:40;;;;;;;1.73;1.63;;;;;;;13.02;79.22;95721.72;4825051;29;20062;-78
2023/10/30 04:14:07;;;;;;;2.15;1.95;;;;;;;12.99;79.12;95722.19;4823791;29;20141;-79
2023/10/30 04:16:35;;;;;;;2.83;1.45;;;;;;;12.94;79.29;95716.78;4824836;29;20056;-79
2023/10/30 04:19:03;;;;;;;2.95;1.50;;;;;;;12.91;79.87;95707.53;4824980;29;20054;-79
2023/10/30 06:39:44;;;;;;;3.60;2.30;;;;;;;10.87;80.22;95680.81;4917481;23;20148;-80
2023/10/30 06:42:27;;;;;;;2.78;1.95;;;;;;;10.88;78.79;95691.03;4847611;29;20031;-79
2023/10/30 08:44:59;;;;;;;2.45;2.25;;;;;;;15.11;70.33;95643.06;5005624;24;20066;-79
2023/10/30 08:55:41;;;;;;;3.33;2.47;;;;;;;16.22;65.82;95640.00;4886299;24;20053;-79
2023/10/30 08:58:10;;;;;;;5.07;2.17;;;;;;;16.43;64.63;95641.88;4844979;29;20058;-79
2023/10/30 09:00:42;;;;;;;2.20;1.80;;;;;;;16.57;64.29;95637.06;4842136;29;20061;-80
2023/10/30 09:03:11;;;;;;;1.70;1.60;;;;;;;16.67;67.08;95636.41;4844864;29;20060;-80
2023/10/30 09:05:40;;;;;;;2.25;1.60;;;;;;;16.75;66.67;95636.00;4843319;29;20137;-82
2023/10/30 09:08:09;;;;;;;2.95;1.85;;;;;;;16.82;65.63;95634.00;4827477;29;20058;-81
2023/10/30 09:10:58;;;;;;;3.70;2.05;;;;;;;16.88;62.07;95625.13;4819705;29;20132;-82
2023/10/30 09:13:27;;;;;;;4.13;2.20;;;;;;;17.00;62.73;95626.84;4830563;29;20106;-81
2023/10/30 09:15:57;;;;;;;3.33;1.83;;;;;;;17.12;61.63;95616.16;4825494;29;20065;-82
2023/10/30 09:18:26;;;;;;;1.60;1.50;;;;;;;17.32;60.89;95611.13;4832528;29;20058;-82
2023/10/30 09:20:54;;;;;;;2.03;1.63;;;;;;;17.54;60.24;95618.97;4843357;29;20089;-81
2023/10/30 09:23:23;;;;;;;2.05;1.42;;;;;;;17.68;59.96;95601.69;4843638;29;20137;-81
2023/10/30 09:25:51;;;;;;;1.65;1.55;;;;;;;17.78;59.42;95608.13;4843212;29;20061;-81
2023/10/30 09:28:20;;;;;;;1.55;1.10;;;;;;;17.82;59.73;95606.56;4837351;29;20059;-82
2023/10/30 09:30:51;;;;;;;2.20;1.65;;;;;;;17.80;58.77;95613.91;4825383;29;20065;-83
2023/10/30 09:33:23;;;;;;;1.98;1.63;;;;;;;17.74;58.53;95613.09;4824948;29;20057;-82
2023/10/30 09:38:31;;;;;;;3.83;1.70;;;;;;;17.68;59.25;95614.88;5419037;24;20472;-80
2023/10/30 09:41:03;;;;;;;1.30;1.20;;;;;;;17.70;59.46;95620.69;4826245;29;20496;-82
2023/10/30 09:43:33;;;;;;;2.58;1.33;;;;;;;17.76;58.93;95626.03;4825716;29;20062;-82
2023/10/30 09:46:16;;;;;;;1.48;1.38;;;;;;;17.86;57.92;95620.84;5085844;24;20062;-78
2023/10/30 09:49:28;;;;;;;;;;;;;;;18.00;59.76;95619.41;5078231;24;20038;-80
2023/10/30 09:52:30;;;;;;;4.55;1.73;;;;;;;17.99;57.11;95617.78;4865591;29;19915;-79
2023/10/30 09:57:44;;;;;;;2.13;1.58;;;;;;;17.84;57.03;95615.03;5065986;24;20048;-79
2023/10/30 10:00:23;;;;;;;2.58;1.40;;;;;;;17.66;57.75;95609.06;4847047;29;20050;-78
2023/10/30 11:00:03;;;;;;;0.90;0.50;;;;;;;16.38;58.62;95491.81;4174426;24;20430;-77
2023/10/30 11:02:31;;;;;;;1.33;0.60;;;;;;;16.34;59.72;95490.72;4840780;29;20081;-76
2023/10/30 11:05:00;;;;;;;5.07;0.77;;;;;;;16.32;59.32;95477.00;4844894;29;20057;-76
2023/10/30 11:07:32;;;;;;;0.60;0.52;;;;;;;16.27;58.76;95479.56;4844469;29;20058;-76
2023/10/30 11:10:04;;;;;;;0.38;0.38;;;;;;;16.21;59.04;95470.03;4844872;29;20054;-78
2023/10/30 11:12:49;;;;;;;1.77;0.88;;;;;;;16.19;62.42;95462.38;4845209;29;20054;-76
2023/10/30 11:15:30;;;;;;;1.48;0.68;;;;;;;16.14;59.11;95464.16;4844745;29;20054;-76
2023/10/30 11:18:14;;;;;;;1.85;0.75;;;;;;;16.08;59.46;95446.72;4844621;29;20057;-76
2023/10/30 11:20:42;;;;;;;2.10;0.55;;;;;;;16.02;59.21;95436.09;4837981;29;20133;-76
2023/10/30 11:23:10;;;;;;;3.08;0.75;;;;;;;16.00;59.46;95438.19;4825931;29;20142;-76
2023/10/30 11:25:44;;;;;;;0.68;0.68;;;;;;;15.96;59.30;95445.00;4825965;29;20093;-76
2023/10/30 11:28:12;;;;;;;1.83;0.80;;;;;;;15.96;59.65;95436.28;4825698;29;20529;-76
2023/10/30 11:30:45;;;;;;;1.52;0.70;;;;;;;15.94;59.41;95439.19;4826235;29;20093;-76
2023/10/30 11:33:20;;;;;;;1.05;0.40;;;;;;;15.95;63.41;95418.94;4826444;29;20054;-76
2023/10/30 11:36:11;;;;;;;0.68;0.40;;;;;;;15.96;60.22;95416.06;4837210;29;20489;-75
2023/10/30 11:38:48;;;;;;;1.95;0.70;;;;;;;15.99;60.11;95427.94;4807954;29;20065;-76
2023/10/30 11:41:17;;;;;;;0.60;0.60;;;;;;;15.99;60.13;95420.84;4808488;29;20054;-76
2023/10/30 11:43:45;;;;;;;0.85;0.68;;;;;;;15.99;59.98;95414.78;4808556;29;20242;-76
2023/10/30 11:46:17;;;;;;;0.55;0.45;;;;;;;15.98;60.02;95419.25;4842084;29;20145;-76
2023/10/30 11:48:45;;;;;;;1.88;0.70;;;;;;;15.98;59.83;95407.91;4832410;29;20510;-77
2023/10/30 11:51:13;;;;;;;2.33;0.77;;;;;;;15.95;59.60;95406.56;4829858;29;20118;-75
2023/10/30 11:53:43;;;;;;;0.82;0.50;;;;;;;15.93;59.58;95399.97;4833831;29;20058;-76
2023/10/30 11:56:13;;;;;;;5.30;0.60;;;;;;;15.90;60.02;95389.97;4833714;29;20538;-77
2023/10/30 11:58:41;;;;;;;1.50;0.70;;;;;;;15.86;60.27;95373.84;4829427;29;20116;-76
2023/10/30 12:01:09;;;;;;;6.32;0.50;;;;;;;15.84;60.13;95386.47;4837459;29;20476;-77
2023/10/30 12:03:38;;;;;;;1.33;0.60;;;;;;;15.83;60.48;95382.22;4844659;29;20244;-77
2023/10/30 12:06:05;;;;;;;0.85;0.77;;;;;;;15.80;60.53;95373.00;4838202;29;20542;-77
2023/10/30 12:08:33;;;;;;;2.05;0.40;;;;;;;15.80;60.44;95380.09;4831807;29;20054;-77
2023/10/30 12:11:01;;;;;;;0.47;0.43;;;;;;;15.78;60.90;95371.66;4847087;29;20065;-76
2023/10/30 12:13:28;;;;;;;1.98;0.80;;;;;;;15.79;60.96;95357.47;4845163;29;20134;-74
2023/10/30 12:15:56;;;;;;;1.75;0.57;;;;;;;15.80;60.96;95346.69;4843427;29;20054;-74
2023/10/30 12:18:24;;;;;;;0.68;0.40;;;;;;;15.80;61.09;95332.75;4845639;29;20054;-75
2023/10/30 12:20:53;;;;;;;0.57;0.30;;;;;;;15.80;61.29;95332.75;4837194;29;20045;-75
2023/10/30 12:23:20;;;;;;;0.50;0.47;;;;;;;15.79;61.07;95334.59;4841312;29;20136;-75
2023/10/30 12:25:50;;;;;;;1.88;0.50;;;;;;;15.80;61.86;95335.41;4837909;29;20133;-75
2023/10/30 12:28:18;;;;;;;1.67;0.80;;;;;;;15.81;61.16;95327.28;4824817;29;20531;-75
2023/10/30 12:30:46;;;;;;;2.08;0.70;;;;;;;15.83;62.13;95327.00;4826511;29;20571;-76
2023/10/30 12:33:21;;;;;;;1.70;0.63;;;;;;;15.84;61.09;95323.34;4836833;29;20057;-76
2023/10/30 12:35:58;;;;;;;0.63;0.45;;;;;;;15.86;61.06;95316.00;4835595;29;20137;-76
2023/10/30 12:38:25;;;;;;;3.08;0.65;;;;;;;15.90;60.94;95297.91;4825227;29;20058;-75
2023/10/30 12:40:53;;;;;;;1.00;0.55;;;;;;;15.92;60.72;95294.00;4825419;29;20059;-75
2023/10/30 12:43:21;;;;;;;0.70;0.43;;;;;;;15.95;60.34;95290.84;4836320;29;20058;-75
2023/10/30 12:45:49;;;;;;;1.77;0.40;;;;;;;15.95;60.70;95275.06;4837574;29;20061;-76
2023/10/30 12:48:16;;;;;;;2.20;0.50;;;;;;;15.96;60.57;95273.22;4825170;29;20050;-75
2023/10/30 12:50:44;;;;;;;1.48;0.43;;;;;;;15.96;60.32;95279.31;4825889;29;20140;-77
2023/10/30 12:53:13;;;;;;;1.25;0.32;;;;;;;15.97;61.01;95290.63;4827936;29;20491;-76
2023/10/30 12:55:41;;;;;;;1.30;0.70;;;;;;;15.97;60.27;95278.25;4826793;29;20085;-76
2023/10/30 12:58:08;;;;;;;0.65;0.40;;;;;;;15.98;60.17;95277.22;4827770;29;20144;-77
2023/10/30 13:00:36;;;;;;;1.75;0.60;;;;;;;16.00;60.75;95275.13;4829986;29;20050;-76
2023/10/30 13:03:03;;;;;;;2.53;0.60;;;;;;;16.03;60.34;95264.13;4824485;29;20404;-76
2023/10/30 13:05:31;;;;;;;3.10;0.85;;;;;;;16.02;60.09;95267.78;4824723;29;20051;-76
2023/10/30 13:07:59;;;;;;;1.23;0.75;;;;;;;15.98;62.44;95264.09;4830435;29;20060;-77
2023/10/30 13:10:28;;;;;;;2.28;0.90;;;;;;;15.97;61.15;95261.69;4842566;29;20070;-77
2023/10/30 13:12:55;;;;;;;0.57;0.38;;;;;;;15.94;61.14;95255.09;4842885;29;20056;-77
2023/10/30 13:15:23;;;;;;;2.25;0.57;;;;;;;15.92;60.36;95248.47;4839846;29;20046;-77
2023/10/30 13:17:52;;;;;;;2.47;0.70;;;;;;;15.90;60.69;95254.00;4829920;29;20102;-77
2023/10/30 13:20:20;;;;;;;1.70;0.40;;;;;;;15.90;63.27;95243.47;4832612;29;20047;-77
2023/10/30 13:22:47;;;;;;;2.60;0.70;;;;;;;15.90;63.32;95246.09;4824383;29;20050;-77
2023/10/30 13:25:16;;;;;;;1.00;0.50;;;;;;;15.89;61.89;95235.84;4824320;29;20129;-77
2023/10/30 13:27:45;;;;;;;1.52;0.40;;;;;;;15.89;64.48;95239.25;4835218;29;20088;-77
2023/10/30 13:30:13;;;;;;;2.63;0.70;;;;;;;15.88;63.77;95235.03;4841837;29;20065;-76
2023/10/30 13:32:41;;;;;;;0.88;0.50;;;;;;;15.86;63.94;95229.22;4841884;29;20140;-78
2023/10/30 13:35:09;;;;;;;2.38;0.77;;;;;;;15.85;63.71;95235.53;4840838;29;20053;-77
2023/10/30 13:37:36;;;;;;;0.50;0.50;;;;;;;15.85;63.44;95228.44;4840849;29;20126;-77
2023/10/30 13:40:06;;;;;;;0.50;0.40;;;;;;;15.85;65.79;95219.75;4842350;29;20601;-78
2023/10/30 13:42:36;;;;;;;1.67;1.48;;;;;;;15.80;62.44;95220.50;4842678;29;20106;-78
2023/10/30 13:45:07;;;;;;;1.92;1.05;;;;;;;15.81;61.76;95229.19;4841860;29;20503;-77
2023/10/30 13:47:34;;;;;;;2.35;2.13;;;;;;;15.79;64.64;95224.19;4822108;29;20623;-77
2023/10/30 13:50:02;;;;;;;1.80;1.38;;;;;;;15.73;63.68;95196.25;4832904;29;20475;-77
2023/10/30 13:52:29;;;;;;;1.38;0.65;;;;;;;15.68;62.17;95198.81;4818764;29;20089;-77
2023/10/30 13:54:57;;;;;;;1.48;0.93;;;;;;;15.66;63.76;95216.66;4830350;29;20066;-77
2023/10/30 13:57:25;;;;;;;1.10;0.80;;;;;;;15.65;63.01;95221.13;4826027;29;20058;-77
2023/10/30 13:59:52;;;;;;;2.17;0.75;;;;;;;15.67;64.99;95212.97;4824593;29;20054;-79
2023/10/30 14:02:21;;;;;;;2.30;1.10;;;;;;;15.65;63.58;95199.28;4824454;29;20434;-78
2023/10/30 14:04:49;;;;;;;4.18;1.42;;;;;;;15.61;62.87;95206.88;4827937;29;20086;-77
2023/10/30 14:07:17;;;;;;;1.33;0.60;;;;;;;15.59;62.92;95185.31;4823819;29;20054;-78
2023/10/30 14:09:47;;;;;;;1.73;1.23;;;;;;;15.58;62.17;95170.56;4826487;29;20062;-77
2023/10/30 14:12:18;;;;;;;1.80;1.48;;;;;;;15.54;62.00;95187.09;4824700;29;20426;-77
2023/10/30 14:14:46;;;;;;;2.00;1.30;;;;;;;15.51;62.25;95193.63;4836111;29;20050;-77
2023/10/30 14:17:13;;;;;;;1.67;1.00;;;;;;;15.50;63.01;95191.25;4836893;29;20442;-76
2023/10/30 14:19:42;;;;;;;1.63;1.13;;;;;;;15.47;61.76;95171.50;4844267;29;20061;-77
2023/10/30 14:22:11;;;;;;;2.40;0.98;;;;;;;15.47;62.74;95168.88;4826490;29;20093;-77
2023/10/30 14:24:39;;;;;;;1.02;0.63;;;;;;;15.45;63.56;95152.56;4824481;29;20050;-77
2023/10/30 14:27:07;;;;;;;3.08;0.80;;;;;;;15.44;64.76;95145.75;4829436;29;20046;-78
2023/10/30 14:29:34;;;;;;;3.03;0.77;;;;;;;15.43;66.59;95141.50;4839177;29;20102;-78
2023/10/30 14:32:03;;;;;;;2.67;1.00;;;;;;;15.40;64.03;95136.75;4832860;29;20133;-78
2023/10/30 14:34:31;;;;;;;5.82;1.67;;;;;;;15.37;63.04;95137.25;4838511;29;20054;-78
2023/10/30 14:37:01;;;;;;;2.35;1.30;;;;;;;15.35;62.61;95127.00;4845722;29;20546;-78
2023/10/30 14:39:29;;;;;;;2.80;1.33;;;;;;;15.37;63.57;95116.22;4842982;29;20073;-78
2023/10/30 14:41:56;;;;;;;2.92;1.75;;;;;;;15.39;63.15;95101.81;4845965;29;20054;-78
2023/10/30 14:44:24;;;;;;;1.33;0.95;;;;;;;15.44;62.54;95103.69;4825502;29;20058;-78
2023/10/30 14:46:52;;;;;;;0.70;0.70;;;;;;;15.46;62.85;95099.00;4840573;29;20106;-78
2023/10/30 14:49:20;;;;;;;4.32;0.98;;;;;;;15.47;63.31;95097.16;4825070;29;20062;-78
2023/10/30 14:51:47;;;;;;;1.35;0.98;;;;;;;15.48;66.92;95085.56;4824990;29;20053;-78
2023/10/30 14:54:16;;;;;;;1.85;1.20;;;;;;;15.44;63.10;95072.94;4823623;29;20054;-78
2023/10/30 14:56:44;;;;;;;1.50;1.02;;;;;;;15.42;63.77;95084.75;4838602;29;20054;-78
2023/10/30 14:59:12;;;;;;;1.60;1.50;;;;;;;15.38;62.93;95079.19;4823275;29;20058;-78
2023/10/30 15:01:40;;;;;;;1.63;1.40;;;;;;;15.34;63.34;95069.44;4825513;29;20064;-77
2023/10/30 15:04:07;;;;;;;1.42;1.10;;;;;;;15.29;62.41;95064.94;4826448;29;20069;-77
2023/10/30 15:06:35;;;;;;;2.17;1.17;;;;;;;15.28;64.15;95067.78;4837856;29;20084;-78
2023/10/30 15:09:04;;;;;;;1.63;1.33;;;;;;;15.27;62.99;95060.97;4841466;29;20102;-78
2023/10/30 15:11:33;;;;;;;1.38;1.27;;;;;;;15.23;63.33;95050.16;4840872;29;20058;-79
2023/10/30 15:14:01;;;;;;;2.72;1.92;;;;;;;15.21;62.80;95041.72;4823218;29;20059;-78
2023/10/30 15:16:28;;;;;;;2.95;1.90;;;;;;;15.15;62.73;95038.28;4823289;29;20503;-78
2023/10/30 15:18:56;;;;;;;3.53;1.52;;;;;;;15.12;64.46;95033.50;4838766;29;20499;-79
2023/10/30 15:21:24;;;;;;;3.28;2.10;;;;;;;15.09;63.58;95031.38;4846848;29;20050;-79
2023/10/30 15:23:51;;;;;;;5.43;2.22;;;;;;;15.04;64.76;95040.03;4844301;29;20069;-78
2023/10/30 15:26:19;;;;;;;5.57;2.75;;;;;;;15.03;65.70;95037.63;4845818;29;20102;-78
2023/10/30 15:28:48;;;;;;;2.92;1.90;;;;;;;15.01;64.28;95037.09;4824164;29;20054;-78
2023/10/30 15:31:16;;;;;;;5.80;3.22;;;;;;;15.00;64.17;95035.50;4830810;29;20133;-79
2023/10/30 15:33:43;;;;;;;3.60;2.88;;;;;;;14.96;64.31;95039.66;4832159;29;20054;-78
2023/10/30 15:36:11;;;;;;;5.63;2.67;;;;;;;14.91;64.14;95026.47;4839840;29;20057;-79
2023/10/30 15:38:39;;;;;;;4.28;2.47;;;;;;;14.88;64.38;95022.50;4841405;29;20426;-78
2023/10/30 15:41:06;;;;;;;4.35;2.42;;;;;;;14.86;64.87;95029.84;4841799;29;20463;-78
2023/10/30 15:43:34;;;;;;;2.50;1.85;;;;;;;14.83;64.39;95020.63;4843595;29;20467;-78
2023/10/30 15:46:03;;;;;;;1.70;1.60;;;;;;;14.78;64.70;95011.91;4843397;29;20064;-78
2023/10/30 15:48:31;;;;;;;3.97;1.80;;;;;;;14.75;64.82;95002.69;4844696;29;20567;-79
2023/10/30 15:50:58;;;;;;;4.10;2.42;;;;;;;14.75;66.53;94992.19;4829602;29;20062;-79
2023/10/30 15:53:26;;;;;;;3.78;2.53;;;;;;;14.73;65.65;94983.78;4830465;29;20050;-76
2023/10/30 15:55:53;;;;;;;3.08;2.10;;;;;;;14.71;65.98;94985.84;4834891;29;20082;-79
2023/10/30 16:23:36;;;;;;;3.55;2.58;;;;;;;14.53;70.89;94981.69;4669909;30;20062;-80
2023/10/30 16:26:04;;;;;;;3.03;2.17;;;;;;;14.48;68.07;94989.53;4686038;30;20065;-80
2023/10/30 16:28:32;;;;;;;2.92;2.42;;;;;;;14.47;68.37;95000.25;4668262;30;20512;-80
2023/10/30 16:31:00;;;;;;;5.47;3.20;;;;;;;14.48;70.94;94989.53;4667039;30;20497;-80
2023/10/30 16:33:28;;;;;;;3.17;2.58;;;;;;;14.52;71.32;95002.91;4666025;30;20058;-80
2023/10/30 16:35:56;;;;;;;4.75;2.50;;;;;;;14.53;69.65;95015.03;4667214;30;20059;-80
2023/10/30 16:38:24;;;;;;;2.28;2.08;;;;;;;14.52;70.15;95016.84;4667905;30;20527;-81
2023/10/30 16:40:53;;;;;;;3.75;2.30;;;;;;;14.54;72.57;95016.59;4667433;30;20108;-80
2023/10/30 16:43:21;;;;;;;2.35;1.40;;;;;;;14.54;71.42;95025.28;4673108;30;20610;-80
2023/10/30 16:45:49;;;;;;;5.10;3.92;;;;;;;14.56;71.28;95031.09;4672073;30;20058;-80
2023/10/30 16:48:18;;;;;;;4.82;3.22;;;;;;;14.55;70.02;95023.47;4670858;30;20487;-80
2023/10/30 16:50:46;;;;;;;6.22;3.25;;;;;;;14.53;70.88;95028.13;4665421;30;20059;-79
2023/10/30 16:53:15;;;;;;;5.32;3.13;;;;;;;14.52;70.36;95029.16;4710386;30;20053;-79
2023/10/30 16:55:43;;;;;;;4.65;2.75;;;;;;;14.53;70.98;95030.75;4732906;30;20060;-79
2023/10/30 17:00:43;;;;;;;5.95;4.10;;;;;;;14.52;71.19;95034.41;4813030;29;20089;-80
2023/10/30 17:03:13;;;;;;;8.73;3.83;;;;;;;14.51;70.95;95038.09;4822312;29;20050;-80
2023/10/30 17:05:41;;;;;;;5.43;4.53;;;;;;;14.52;72.50;95050.16;4829465;29;20058;-80
2023/10/30 17:08:09;;;;;;;4.32;3.88;;;;;;;14.52;71.43;95044.91;4828784;29;20054;-79
2023/10/30 17:10:38;;;;;;;7.47;3.95;;;;;;;14.49;70.83;95042.78;4834791;29;20117;-79
2023/10/30 17:13:08;;;;;;;8.27;4.28;;;;;;;14.47;70.72;95032.53;4819070;29;20051;-80
2023/10/30 17:15:36;;;;;;;8.57;5.70;;;;;;;14.42;72.40;95041.13;4813902;29;20062;-77
2023/10/30 17:18:05;;;;;;;11.45;6.20;;;;;;;14.40;73.46;95048.44;4806031;29;20500;-79
2023/10/30 17:20:33;;;;;;;10.65;6.03;;;;;;;14.40;74.76;95029.28;4806833;29;20150;-78
2023/10/30 17:23:00;;;;;;;6.40;5.20;;;;;;;14.41;73.64;95036.16;4806464;29;20058;-79
2023/10/30 17:25:28;;;;;;;8.00;5.20;;;;;;;14.37;73.82;95032.41;4806838;29;20047;-79
2023/10/30 17:27:58;;;;;;;8.20;5.47;;;;;;;14.35;75.15;95055.47;4807050;29;20505;-79
2023/10/30 17:30:25;;;;;;;7.45;5.50;;;;;;;14.34;75.73;95046.81;4806607;29;20071;-79
2023/10/30 17:32:53;;;;;;;9.23;4.97;;;;;;;14.31;76.28;95039.41;4806600;29;20097;-79
2023/10/30 17:35:22;;;;;;;8.63;5.20;;;;;;;14.25;74.44;95019.41;4808560;29;20061;-79
2023/10/30 17:37:50;;;;;;;9.93;5.82;;;;;;;14.22;75.84;95012.03;4809080;29;20083;-79
2023/10/30 17:40:18;;;;;;;9.30;5.55;;;;;;;14.20;75.48;95016.72;4807397;29;20106;-80